sensor_id;sensor_type;location;lat;lon;timestamp;pressure;altitude;pressure_sealevel;temperature;humidity
52032;BME280;38044;45.148;39.604;2024-03-23T00:56:16;100911.22;;;3.15;94.59
52032;BME280;38044;45.148;39.604;2024-03-23T00:58:42;100922.06;;;3.25;94.88
52032;BME280;38044;45.148;39.604;2024-03-23T01:01:08;100925.78;;;3.24;94.95
52032;BME280;38044;45.148;39.604;2024-03-23T01:03:34;100911.56;;;3.19;94.95
52032;BME280;38044;45.148;39.604;2024-03-23T01:06:00;100923.69;;;3.26;94.83
52032;BME280;38044;45.148;39.604;2024-03-23T01:08:26;100918.81;;;3.23;94.73
52032;BME280;38044;45.148;39.604;2024-03-23T01:10:56;100907.06;;;3.19;95.10
52032;BME280;38044;45.148;39.604;2024-03-23T01:13:22;100918.00;;;3.23;94.92
52032;BME280;38044;45.148;39.604;2024-03-23T01:15:50;100926.34;;;3.26;95.16
52032;BME280;38044;45.148;39.604;2024-03-23T01:18:20;100926.09;;;3.28;95.35
52032;BME280;38044;45.148;39.604;2024-03-23T01:20:46;100931.09;;;3.24;95.28
52032;BME280;38044;45.148;39.604;2024-03-23T01:23:12;100929.00;;;3.26;95.19
52032;BME280;38044;45.148;39.604;2024-03-23T01:25:38;100926.91;;;3.28;94.91
52032;BME280;38044;45.148;39.604;2024-03-23T01:28:05;100931.75;;;3.31;94.49
52032;BME280;38044;45.148;39.604;2024-03-23T01:30:35;100932.69;;;3.25;94.74
52032;BME280;38044;45.148;39.604;2024-03-23T01:33:01;100933.50;;;3.26;94.75
52032;BME280;38044;45.148;39.604;2024-03-23T01:35:30;100920.34;;;3.19;94.65
52032;BME280;38044;45.148;39.604;2024-03-23T01:37:59;100920.47;;;3.24;94.77
52032;BME280;38044;45.148;39.604;2024-03-23T01:40:24;100926.56;;;3.25;94.61
52032;BME280;38044;45.148;39.604;2024-03-23T01:42:56;100931.09;;;3.24;95.10
52032;BME280;38044;45.148;39.604;2024-03-23T01:45:23;100907.88;;;3.08;94.98
52032;BME280;38044;45.148;39.604;2024-03-23T01:47:50;100921.13;;;3.20;95.34
52032;BME280;38044;45.148;39.604;2024-03-23T01:50:17;100925.44;;;3.21;95.70
52032;BME280;38044;45.148;39.604;2024-03-23T01:52:43;100923.34;;;3.23;95.43
52032;BME280;38044;45.148;39.604;2024-03-23T01:55:09;100915.81;;;3.20;95.43
52032;BME280;38044;45.148;39.604;2024-03-23T01:57:36;100908.00;;;3.13;95.48
52032;BME280;38044;45.148;39.604;2024-03-23T02:00:02;100910.53;;;3.08;95.37
52032;BME280;38044;45.148;39.604;2024-03-23T02:02:28;100924.59;;;3.20;95.64
52032;BME280;38044;45.148;39.604;2024-03-23T02:04:54;100933.28;;;3.15;95.61
52032;BME280;38044;45.148;39.604;2024-03-23T02:07:20;100924.50;;;3.15;96.01
52032;BME280;38044;45.148;39.604;2024-03-23T02:09:46;100931.31;;;3.11;96.05
52032;BME280;38044;45.148;39.604;2024-03-23T02:12:12;100915.63;;;2.98;96.30
52032;BME280;38044;45.148;39.604;2024-03-23T02:14:38;100930.41;;;3.05;96.63
52032;BME280;38044;45.148;39.604;2024-03-23T02:17:04;100919.31;;;2.97;96.82
52032;BME280;38044;45.148;39.604;2024-03-23T02:19:30;100929.00;;;3.03;96.71
52032;BME280;38044;45.148;39.604;2024-03-23T02:21:55;100931.66;;;3.03;96.83
52032;BME280;38044;45.148;39.604;2024-03-23T02:24:21;100933.75;;;3.01;96.98
52032;BME280;38044;45.148;39.604;2024-03-23T02:26:47;100925.09;;;2.93;96.84
52032;BME280;38044;45.148;39.604;2024-03-23T02:29:14;100914.47;;;2.93;96.63
52032;BME280;38044;45.148;39.604;2024-03-23T02:31:40;100904.78;;;2.87;96.69
52032;BME280;38044;45.148;39.604;2024-03-23T02:34:06;100909.28;;;2.87;97.12
52032;BME280;38044;45.148;39.604;2024-03-23T02:36:32;100915.38;;;2.87;97.41
52032;BME280;38044;45.148;39.604;2024-03-23T02:38:57;100918.25;;;2.86;97.34
52032;BME280;38044;45.148;39.604;2024-03-23T02:41:23;100913.19;;;2.84;97.38
52032;BME280;38044;45.148;39.604;2024-03-23T02:43:50;100921.75;;;2.86;97.44
52032;BME280;38044;45.148;39.604;2024-03-23T02:46:16;100920.91;;;2.86;97.60
52032;BME280;38044;45.148;39.604;2024-03-23T02:48:42;100911.00;;;2.81;97.70
52032;BME280;38044;45.148;39.604;2024-03-23T02:51:08;100938.25;;;2.88;97.65
52032;BME280;38044;45.148;39.604;2024-03-23T02:53:33;100934.56;;;2.89;97.83
52032;BME280;38044;45.148;39.604;2024-03-23T02:55:59;100940.56;;;2.97;97.76
52032;BME280;38044;45.148;39.604;2024-03-23T02:58:25;100936.63;;;2.99;97.65
52032;BME280;38044;45.148;39.604;2024-03-23T03:00:51;100925.88;;;2.94;97.53
52032;BME280;38044;45.148;39.604;2024-03-23T03:03:17;100942.63;;;2.94;97.40
52032;BME280;38044;45.148;39.604;2024-03-23T03:05:43;100942.19;;;2.98;97.17
52032;BME280;38044;45.148;39.604;2024-03-23T03:08:09;100941.69;;;2.89;96.94
52032;BME280;38044;45.148;39.604;2024-03-23T03:10:35;100951.06;;;2.91;97.24
52032;BME280;38044;45.148;39.604;2024-03-23T03:13:02;100944.00;;;2.85;96.86
52032;BME280;38044;45.148;39.604;2024-03-23T03:15:28;100956.03;;;2.88;96.97
52032;BME280;38044;45.148;39.604;2024-03-23T03:17:54;100965.72;;;2.82;96.88
52032;BME280;38044;45.148;39.604;2024-03-23T03:20:20;100960.19;;;2.84;97.01
52032;BME280;38044;45.148;39.604;2024-03-23T03:22:47;100957.75;;;2.82;97.30
52032;BME280;38044;45.148;39.604;2024-03-23T03:25:13;100971.63;;;2.84;97.33
52032;BME280;38044;45.148;39.604;2024-03-23T03:27:39;100969.66;;;2.91;97.54
52032;BME280;38044;45.148;39.604;2024-03-23T03:30:05;100980.97;;;2.87;97.07
52032;BME280;38044;45.148;39.604;2024-03-23T03:32:33;100971.03;;;2.82;97.27
52032;BME280;38044;45.148;39.604;2024-03-23T03:34:59;100974.63;;;2.88;96.82
52032;BME280;38044;45.148;39.604;2024-03-23T03:37:25;100985.56;;;2.91;97.01
52032;BME280;38044;45.148;39.604;2024-03-23T03:39:51;100989.63;;;2.94;97.04
52032;BME280;38044;45.148;39.604;2024-03-23T03:42:17;100994.25;;;2.99;97.03
52032;BME280;38044;45.148;39.604;2024-03-23T03:44:42;100998.97;;;2.97;96.89
52032;BME280;38044;45.148;39.604;2024-03-23T03:47:08;101007.19;;;2.95;96.93
52032;BME280;38044;45.148;39.604;2024-03-23T03:49:34;100985.22;;;2.88;97.02
52032;BME280;38044;45.148;39.604;2024-03-23T03:52:00;100996.13;;;2.98;96.66
52032;BME280;38044;45.148;39.604;2024-03-23T03:54:27;100996.31;;;2.97;97.06
52032;BME280;38044;45.148;39.604;2024-03-23T03:56:54;100983.16;;;2.90;97.18
52032;BME280;38044;45.148;39.604;2024-03-23T03:59:23;100995.75;;;2.94;97.04
52032;BME280;38044;45.148;39.604;2024-03-23T04:01:48;100976.47;;;2.87;97.22
52032;BME280;38044;45.148;39.604;2024-03-23T04:04:14;100994.13;;;2.93;97.36
52032;BME280;38044;45.148;39.604;2024-03-23T04:06:43;100993.00;;;2.89;97.42
52032;BME280;38044;45.148;39.604;2024-03-23T04:09:09;100990.88;;;2.91;97.57
52032;BME280;38044;45.148;39.604;2024-03-23T04:11:35;101000.50;;;2.92;97.84
52032;BME280;38044;45.148;39.604;2024-03-23T04:14:01;101001.63;;;2.97;98.16
52032;BME280;38044;45.148;39.604;2024-03-23T04:16:28;101002.56;;;3.02;98.44
52032;BME280;38044;45.148;39.604;2024-03-23T04:18:54;100995.06;;;3.11;98.54
52032;BME280;38044;45.148;39.604;2024-03-23T04:21:21;101005.22;;;3.14;98.27
52032;BME280;38044;45.148;39.604;2024-03-23T04:23:48;100986.97;;;3.06;98.11
52032;BME280;38044;45.148;39.604;2024-03-23T04:26:15;100991.16;;;3.02;98.10
52032;BME280;38044;45.148;39.604;2024-03-23T04:28:41;100973.22;;;2.97;98.02
52032;BME280;38044;45.148;39.604;2024-03-23T04:31:08;100994.84;;;3.01;98.21
52032;BME280;38044;45.148;39.604;2024-03-23T04:33:37;101001.53;;;3.03;98.32
52032;BME280;38044;45.148;39.604;2024-03-23T04:36:03;100996.00;;;3.05;98.58
52032;BME280;38044;45.148;39.604;2024-03-23T04:38:29;101003.75;;;3.06;98.51
52032;BME280;38044;45.148;39.604;2024-03-23T04:41:00;101006.63;;;3.16;98.86
52032;BME280;38044;45.148;39.604;2024-03-23T04:43:27;101000.50;;;3.16;98.74
52032;BME280;38044;45.148;39.604;2024-03-23T04:45:54;100996.25;;;3.15;98.46
52032;BME280;38044;45.148;39.604;2024-03-23T04:48:23;101003.84;;;3.23;98.47
52032;BME280;38044;45.148;39.604;2024-03-23T04:50:49;100993.00;;;3.13;98.12
52032;BME280;38044;45.148;39.604;2024-03-23T04:53:16;101005.47;;;3.24;98.53
52032;BME280;38044;45.148;39.604;2024-03-23T04:55:42;101003.84;;;3.23;98.50
52032;BME280;38044;45.148;39.604;2024-03-23T04:58:08;101003.41;;;3.26;98.11
52032;BME280;38044;45.148;39.604;2024-03-23T05:00:34;101014.84;;;3.38;98.21
52032;BME280;38044;45.148;39.604;2024-03-23T05:03:00;101008.25;;;3.29;98.25
52032;BME280;38044;45.148;39.604;2024-03-23T05:05:26;101004.56;;;3.30;97.97
52032;BME280;38044;45.148;39.604;2024-03-23T05:07:52;101016.91;;;3.48;98.13
52032;BME280;38044;45.148;39.604;2024-03-23T05:10:18;101002.94;;;3.53;98.10
52032;BME280;38044;45.148;39.604;2024-03-23T05:12:43;101037.13;;;3.73;98.17
52032;BME280;38044;45.148;39.604;2024-03-23T05:15:11;101017.34;;;3.69;97.51
52032;BME280;38044;45.148;39.604;2024-03-23T05:17:37;101012.81;;;3.81;97.43
52032;BME280;38044;45.148;39.604;2024-03-23T05:20:04;101029.13;;;3.84;97.14
52032;BME280;38044;45.148;39.604;2024-03-23T05:22:35;101028.41;;;3.89;97.08
52032;BME280;38044;45.148;39.604;2024-03-23T05:25:02;101022.63;;;3.92;97.31
52032;BME280;38044;45.148;39.604;2024-03-23T05:27:31;101027.69;;;3.94;97.62
52032;BME280;38044;45.148;39.604;2024-03-23T05:29:57;101029.41;;;4.00;97.42
52032;BME280;38044;45.148;39.604;2024-03-23T05:32:24;101025.25;;;4.04;97.31
52032;BME280;38044;45.148;39.604;2024-03-23T05:34:49;101046.03;;;4.19;96.87
52032;BME280;38044;45.148;39.604;2024-03-23T05:37:21;101039.53;;;4.26;96.59
52032;BME280;38044;45.148;39.604;2024-03-23T05:39:47;101045.25;;;4.47;96.77
52032;BME280;38044;45.148;39.604;2024-03-23T05:42:18;101038.47;;;4.56;96.43
52032;BME280;38044;45.148;39.604;2024-03-23T05:44:45;101028.78;;;4.50;96.02
52032;BME280;38044;45.148;39.604;2024-03-23T05:47:11;101038.00;;;4.59;95.76
52032;BME280;38044;45.148;39.604;2024-03-23T05:49:42;101045.41;;;4.57;96.15
52032;BME280;38044;45.148;39.604;2024-03-23T05:52:09;101046.72;;;4.71;95.25
52032;BME280;38044;45.148;39.604;2024-03-23T05:54:35;101041.34;;;4.83;94.69
52032;BME280;38044;45.148;39.604;2024-03-23T05:57:02;101038.53;;;4.90;95.07
52032;BME280;38044;45.148;39.604;2024-03-23T05:59:28;101059.03;;;5.06;94.70
52032;BME280;38044;45.148;39.604;2024-03-23T06:01:54;101039.03;;;5.04;94.55
52032;BME280;38044;45.148;39.604;2024-03-23T06:04:20;101058.72;;;5.19;94.37
52032;BME280;38044;45.148;39.604;2024-03-23T06:06:48;101055.97;;;5.31;94.27
52032;BME280;38044;45.148;39.604;2024-03-23T06:09:14;101049.50;;;5.44;94.48
52032;BME280;38044;45.148;39.604;2024-03-23T06:11:40;101058.22;;;5.56;93.88
52032;BME280;38044;45.148;39.604;2024-03-23T06:14:05;101050.75;;;5.75;92.67
52032;BME280;38044;45.148;39.604;2024-03-23T06:16:31;101046.03;;;5.82;93.58
52032;BME280;38044;45.148;39.604;2024-03-23T06:18:57;101057.19;;;5.96;92.84
52032;BME280;38044;45.148;39.604;2024-03-23T06:21:24;101042.97;;;6.13;92.54
52032;BME280;38044;45.148;39.604;2024-03-23T06:23:53;101055.03;;;6.42;92.56
52032;BME280;38044;45.148;39.604;2024-03-23T06:26:19;101052.94;;;6.44;92.11
52032;BME280;38044;45.148;39.604;2024-03-23T06:28:48;101048.91;;;6.69;90.39
52032;BME280;38044;45.148;39.604;2024-03-23T06:31:14;101058.97;;;6.89;90.79
52032;BME280;38044;45.148;39.604;2024-03-23T06:33:40;101057.78;;;7.07;89.47
52032;BME280;38044;45.148;39.604;2024-03-23T06:36:09;101063.31;;;7.27;90.07
52032;BME280;38044;45.148;39.604;2024-03-23T06:38:36;101055.84;;;7.34;90.10
52032;BME280;38044;45.148;39.604;2024-03-23T06:41:04;101053.75;;;7.36;88.75
52032;BME280;38044;45.148;39.604;2024-03-23T06:43:29;101054.75;;;7.67;87.37
52032;BME280;38044;45.148;39.604;2024-03-23T06:45:56;101051.91;;;7.95;86.26
52032;BME280;38044;45.148;39.604;2024-03-23T06:48:22;101055.81;;;8.34;84.17
52032;BME280;38044;45.148;39.604;2024-03-23T06:50:47;101060.47;;;8.60;80.41
52032;BME280;38044;45.148;39.604;2024-03-23T06:53:14;101052.19;;;8.71;78.38
52032;BME280;38044;45.148;39.604;2024-03-23T06:55:41;101066.13;;;8.89;77.85
52032;BME280;38044;45.148;39.604;2024-03-23T06:58:07;101055.41;;;9.04;76.31
52032;BME280;38044;45.148;39.604;2024-03-23T07:00:33;101061.56;;;9.35;75.04
52032;BME280;38044;45.148;39.604;2024-03-23T07:03:00;101066.63;;;9.62;73.60
52032;BME280;38044;45.148;39.604;2024-03-23T07:05:26;101070.88;;;9.84;72.02
52032;BME280;38044;45.148;39.604;2024-03-23T07:07:52;101082.09;;;10.01;70.36
52032;BME280;38044;45.148;39.604;2024-03-23T07:10:17;101070.84;;;9.99;70.45
52032;BME280;38044;45.148;39.604;2024-03-23T07:12:43;101068.69;;;9.96;70.33
52032;BME280;38044;45.148;39.604;2024-03-23T07:15:10;101080.63;;;10.40;69.04
52032;BME280;38044;45.148;39.604;2024-03-23T07:17:35;101070.75;;;10.69;66.94
52032;BME280;38044;45.148;39.604;2024-03-23T07:20:02;101064.84;;;10.67;68.02
52032;BME280;38044;45.148;39.604;2024-03-23T07:22:32;101069.16;;;10.73;67.27
52032;BME280;38044;45.148;39.604;2024-03-23T07:25:02;101075.97;;;10.95;65.55
52032;BME280;38044;45.148;39.604;2024-03-23T07:27:28;101071.97;;;11.21;65.01
52032;BME280;38044;45.148;39.604;2024-03-23T07:29:54;101063.94;;;11.50;64.11
52032;BME280;38044;45.148;39.604;2024-03-23T07:32:20;101064.91;;;11.60;64.50
52032;BME280;38044;45.148;39.604;2024-03-23T07:34:46;101065.47;;;11.86;62.87
52032;BME280;38044;45.148;39.604;2024-03-23T07:37:12;101072.19;;;11.83;63.03
52032;BME280;38044;45.148;39.604;2024-03-23T07:39:39;101057.63;;;11.60;63.19
52032;BME280;38044;45.148;39.604;2024-03-23T07:42:06;101061.69;;;11.58;64.43
52032;BME280;38044;45.148;39.604;2024-03-23T07:44:31;101060.97;;;11.76;62.96
52032;BME280;38044;45.148;39.604;2024-03-23T07:47:00;101072.50;;;12.06;62.63
52032;BME280;38044;45.148;39.604;2024-03-23T07:49:26;101063.63;;;12.05;62.03
52032;BME280;38044;45.148;39.604;2024-03-23T07:51:52;101066.06;;;12.45;60.08
52032;BME280;38044;45.148;39.604;2024-03-23T07:54:18;101065.19;;;12.87;59.51
52032;BME280;38044;45.148;39.604;2024-03-23T07:56:44;101063.56;;;13.38;58.32
52032;BME280;38044;45.148;39.604;2024-03-23T07:59:10;101065.22;;;13.80;57.88
52032;BME280;38044;45.148;39.604;2024-03-23T08:01:36;101060.28;;;13.22;56.42
52032;BME280;38044;45.148;39.604;2024-03-23T08:04:02;101066.72;;;12.74;58.03
52032;BME280;38044;45.148;39.604;2024-03-23T08:06:28;101059.69;;;13.44;59.10
52032;BME280;38044;45.148;39.604;2024-03-23T08:08:57;101055.81;;;14.05;57.24
52032;BME280;38044;45.148;39.604;2024-03-23T08:11:27;101066.97;;;14.40;56.09
52032;BME280;38044;45.148;39.604;2024-03-23T08:13:54;101063.72;;;14.66;53.90
52032;BME280;38044;45.148;39.604;2024-03-23T08:16:21;101054.88;;;14.74;53.40
52032;BME280;38044;45.148;39.604;2024-03-23T08:18:47;101054.38;;;14.22;54.17
52032;BME280;38044;45.148;39.604;2024-03-23T08:21:12;101050.31;;;13.83;57.19
52032;BME280;38044;45.148;39.604;2024-03-23T08:23:38;101053.50;;;13.85;55.26
52032;BME280;38044;45.148;39.604;2024-03-23T08:26:10;101053.41;;;13.62;57.25
52032;BME280;38044;45.148;39.604;2024-03-23T08:28:37;101054.69;;;14.20;55.88
52032;BME280;38044;45.148;39.604;2024-03-23T08:31:12;101039.63;;;14.28;54.80
52032;BME280;38044;45.148;39.604;2024-03-23T08:33:40;101047.59;;;13.69;55.54
52032;BME280;38044;45.148;39.604;2024-03-23T08:36:09;101042.56;;;13.35;56.01
52032;BME280;38044;45.148;39.604;2024-03-23T08:38:35;101040.63;;;12.89;57.87
52032;BME280;38044;45.148;39.604;2024-03-23T08:41:03;101048.13;;;12.73;57.63
52032;BME280;38044;45.148;39.604;2024-03-23T08:43:31;101038.44;;;12.53;58.05
52032;BME280;38044;45.148;39.604;2024-03-23T08:46:07;101037.41;;;13.80;57.07
52032;BME280;38044;45.148;39.604;2024-03-23T08:48:40;101041.88;;;14.12;56.07
52032;BME280;38044;45.148;39.604;2024-03-23T08:51:09;101033.16;;;14.15;55.27
52032;BME280;38044;45.148;39.604;2024-03-23T08:53:36;101051.50;;;14.04;56.61
52032;BME280;38044;45.148;39.604;2024-03-23T08:56:03;101043.59;;;13.94;55.66
52032;BME280;38044;45.148;39.604;2024-03-23T08:58:30;101049.38;;;14.87;56.45
52032;BME280;38044;45.148;39.604;2024-03-23T09:01:02;101055.03;;;14.41;55.78
52032;BME280;38044;45.148;39.604;2024-03-23T09:03:28;101063.13;;;13.63;55.22
52032;BME280;38044;45.148;39.604;2024-03-23T09:05:54;101059.69;;;13.11;56.67
52032;BME280;38044;45.148;39.604;2024-03-23T09:08:21;101044.34;;;12.74;58.03
52032;BME280;38044;45.148;39.604;2024-03-23T09:10:48;101058.91;;;12.73;58.08
52032;BME280;38044;45.148;39.604;2024-03-23T09:13:14;101057.97;;;12.82;58.81
52032;BME280;38044;45.148;39.604;2024-03-23T09:15:47;101051.81;;;12.96;58.52
52032;BME280;38044;45.148;39.604;2024-03-23T09:18:13;101053.19;;;12.79;58.82
52032;BME280;38044;45.148;39.604;2024-03-23T09:20:39;101041.22;;;12.85;59.26
52032;BME280;38044;45.148;39.604;2024-03-23T09:23:05;101048.38;;;13.28;58.47
52032;BME280;38044;45.148;39.604;2024-03-23T09:25:31;101043.38;;;13.35;59.11
52032;BME280;38044;45.148;39.604;2024-03-23T09:27:58;101029.28;;;13.05;58.19
52032;BME280;38044;45.148;39.604;2024-03-23T09:30:24;101041.94;;;12.72;58.15
52032;BME280;38044;45.148;39.604;2024-03-23T09:32:50;101035.16;;;12.56;60.12
52032;BME280;38044;45.148;39.604;2024-03-23T09:35:15;101027.63;;;12.39;59.08
52032;BME280;38044;45.148;39.604;2024-03-23T09:37:41;101023.84;;;12.92;60.08
52032;BME280;38044;45.148;39.604;2024-03-23T09:40:11;101022.44;;;14.10;58.45
52032;BME280;38044;45.148;39.604;2024-03-23T09:42:37;101032.66;;;13.99;57.70
52032;BME280;38044;45.148;39.604;2024-03-23T09:45:13;101020.41;;;13.65;57.70
52032;BME280;38044;45.148;39.604;2024-03-23T09:47:42;101039.69;;;13.12;58.82
52032;BME280;38044;45.148;39.604;2024-03-23T09:50:09;101037.56;;;12.76;58.25
52032;BME280;38044;45.148;39.604;2024-03-23T09:52:35;101040.69;;;12.83;59.76
52032;BME280;38044;45.148;39.604;2024-03-23T09:55:01;101033.69;;;13.15;58.68
52032;BME280;38044;45.148;39.604;2024-03-23T09:57:29;101030.78;;;13.31;57.72
52032;BME280;38044;45.148;39.604;2024-03-23T09:59:55;101012.56;;;13.36;56.56
52032;BME280;38044;45.148;39.604;2024-03-23T10:02:22;101014.66;;;13.25;56.48
52032;BME280;38044;45.148;39.604;2024-03-23T10:04:49;101016.78;;;13.42;57.51
52032;BME280;38044;45.148;39.604;2024-03-23T10:07:19;101018.56;;;13.33;57.29
52032;BME280;38044;45.148;39.604;2024-03-23T10:09:46;101017.50;;;13.15;57.56
52032;BME280;38044;45.148;39.604;2024-03-23T10:12:18;101015.81;;;13.19;57.86
52032;BME280;38044;45.148;39.604;2024-03-23T10:14:44;101017.97;;;13.64;57.05
52032;BME280;38044;45.148;39.604;2024-03-23T10:17:17;101003.59;;;13.82;57.13
52032;BME280;38044;45.148;39.604;2024-03-23T10:19:44;101001.34;;;13.98;57.79
52032;BME280;38044;45.148;39.604;2024-03-23T10:22:14;100997.06;;;13.42;57.70
52032;BME280;38044;45.148;39.604;2024-03-23T10:24:41;100997.19;;;13.37;58.46
52032;BME280;38044;45.148;39.604;2024-03-23T10:27:06;100995.81;;;13.20;57.74
52032;BME280;38044;45.148;39.604;2024-03-23T10:29:32;100991.06;;;13.31;58.20
52032;BME280;38044;45.148;39.604;2024-03-23T10:32:09;100995.16;;;13.56;58.55
52032;BME280;38044;45.148;39.604;2024-03-23T10:34:36;100993.88;;;13.40;58.11
52032;BME280;38044;45.148;39.604;2024-03-23T10:37:02;100997.97;;;13.37;57.35
52032;BME280;38044;45.148;39.604;2024-03-23T10:39:41;100998.59;;;13.48;58.60
52032;BME280;38044;45.148;39.604;2024-03-23T10:42:08;100986.00;;;13.24;58.08
52032;BME280;38044;45.148;39.604;2024-03-23T10:44:36;100990.09;;;13.22;57.56
52032;BME280;38044;45.148;39.604;2024-03-23T10:47:02;100990.47;;;13.01;57.37
52032;BME280;38044;45.148;39.604;2024-03-23T10:49:32;100977.28;;;13.00;58.86
52032;BME280;38044;45.148;39.604;2024-03-23T10:52:03;100996.78;;;12.97;58.41
52032;BME280;38044;45.148;39.604;2024-03-23T10:54:30;100994.09;;;12.78;60.42
52032;BME280;38044;45.148;39.604;2024-03-23T10:57:02;100976.03;;;12.78;59.22
52032;BME280;38044;45.148;39.604;2024-03-23T10:59:29;100986.31;;;13.09;59.15
52032;BME280;38044;45.148;39.604;2024-03-23T11:02:00;100976.84;;;13.53;58.64
52032;BME280;38044;45.148;39.604;2024-03-23T11:04:35;100972.75;;;13.56;56.66
52032;BME280;38044;45.148;39.604;2024-03-23T11:07:46;100987.84;;;13.70;57.24
52032;BME280;38044;45.148;39.604;2024-03-23T11:09:47;101000.84;;;12.94;58.93
52032;BME280;38044;45.148;39.604;2024-03-23T11:14:55;100989.50;;;12.78;58.67
52032;BME280;38044;45.148;39.604;2024-03-23T11:17:23;100983.28;;;12.97;58.39
52032;BME280;38044;45.148;39.604;2024-03-23T11:20:00;100988.78;;;13.52;57.48
52032;BME280;38044;45.148;39.604;2024-03-23T11:22:45;100987.66;;;13.53;55.89
52032;BME280;38044;45.148;39.604;2024-03-23T11:25:20;100992.25;;;13.39;58.38
52032;BME280;38044;45.148;39.604;2024-03-23T11:27:48;100983.28;;;13.57;58.16
52032;BME280;38044;45.148;39.604;2024-03-23T11:30:21;100980.94;;;13.92;56.28
52032;BME280;38044;45.148;39.604;2024-03-23T11:32:52;100988.09;;;14.10;58.28
52032;BME280;38044;45.148;39.604;2024-03-23T11:38:13;100984.88;;;15.43;55.38
52032;BME280;38044;45.148;39.604;2024-03-23T11:40:45;100979.81;;;15.19;52.73
52032;BME280;38044;45.148;39.604;2024-03-23T11:43:19;100973.97;;;14.95;53.11
52032;BME280;38044;45.148;39.604;2024-03-23T11:45:50;100979.84;;;14.88;52.43
52032;BME280;38044;45.148;39.604;2024-03-23T11:48:21;100973.19;;;14.72;53.23
52032;BME280;38044;45.148;39.604;2024-03-23T11:50:49;100980.53;;;14.71;53.50
52032;BME280;38044;45.148;39.604;2024-03-23T11:53:22;100985.69;;;14.81;52.74
52032;BME280;38044;45.148;39.604;2024-03-23T11:55:49;100983.84;;;15.30;52.89
52032;BME280;38044;45.148;39.604;2024-03-23T11:58:16;100971.84;;;14.83;52.51
52032;BME280;38044;45.148;39.604;2024-03-23T12:00:56;100963.28;;;14.67;52.62
52032;BME280;38044;45.148;39.604;2024-03-23T12:03:23;100970.75;;;14.61;53.44
52032;BME280;38044;45.148;39.604;2024-03-23T12:05:54;100964.81;;;14.37;51.89
52032;BME280;38044;45.148;39.604;2024-03-23T12:08:36;100974.28;;;14.48;52.63
52032;BME280;38044;45.148;39.604;2024-03-23T12:11:08;100969.59;;;14.40;53.21
52032;BME280;38044;45.148;39.604;2024-03-23T12:13:35;100965.03;;;14.27;53.08
52032;BME280;38044;45.148;39.604;2024-03-23T12:16:17;100966.78;;;14.45;53.54
52032;BME280;38044;45.148;39.604;2024-03-23T12:18:44;100965.28;;;14.16;54.20
52032;BME280;38044;45.148;39.604;2024-03-23T12:21:11;100964.25;;;14.26;53.01
52032;BME280;38044;45.148;39.604;2024-03-23T12:23:39;100955.50;;;14.66;54.41
52032;BME280;38044;45.148;39.604;2024-03-23T12:26:05;100954.81;;;14.82;52.35
52032;BME280;38044;45.148;39.604;2024-03-23T12:28:32;100962.50;;;14.67;50.53
52032;BME280;38044;45.148;39.604;2024-03-23T12:30:58;100953.13;;;14.50;51.19
52032;BME280;38044;45.148;39.604;2024-03-23T12:33:24;100955.22;;;14.31;52.34
52032;BME280;38044;45.148;39.604;2024-03-23T12:35:51;100939.44;;;14.10;54.39
52032;BME280;38044;45.148;39.604;2024-03-23T12:38:17;100960.13;;;13.92;52.97
52032;BME280;38044;45.148;39.604;2024-03-23T12:40:49;100956.81;;;13.82;53.51
52032;BME280;38044;45.148;39.604;2024-03-23T12:43:15;100946.97;;;13.49;54.64
52032;BME280;38044;45.148;39.604;2024-03-23T12:45:46;100941.19;;;13.42;54.00
52032;BME280;38044;45.148;39.604;2024-03-23T12:48:12;100946.56;;;13.28;54.88
52032;BME280;38044;45.148;39.604;2024-03-23T12:50:38;100942.47;;;13.45;54.30
52032;BME280;38044;45.148;39.604;2024-03-23T12:53:04;100951.75;;;13.80;55.04
52032;BME280;38044;45.148;39.604;2024-03-23T12:55:30;100939.44;;;13.88;53.43
52032;BME280;38044;45.148;39.604;2024-03-23T12:57:56;100946.47;;;14.11;53.45
52032;BME280;38044;45.148;39.604;2024-03-23T13:00:25;100953.72;;;14.25;52.72
52032;BME280;38044;45.148;39.604;2024-03-23T13:02:50;100955.50;;;13.93;53.54
52032;BME280;38044;45.148;39.604;2024-03-23T13:05:18;100952.34;;;13.63;53.44
52032;BME280;38044;45.148;39.604;2024-03-23T13:07:44;100943.28;;;13.59;54.27
52032;BME280;38044;45.148;39.604;2024-03-23T13:10:09;100962.75;;;13.56;55.37
52032;BME280;38044;45.148;39.604;2024-03-23T13:12:35;100940.94;;;13.52;55.46
52032;BME280;38044;45.148;39.604;2024-03-23T13:15:02;100945.75;;;13.56;53.19
52032;BME280;38044;45.148;39.604;2024-03-23T13:17:28;100942.34;;;13.50;54.08
52032;BME280;38044;45.148;39.604;2024-03-23T13:19:54;100942.97;;;13.47;55.09
52032;BME280;38044;45.148;39.604;2024-03-23T13:22:23;100939.88;;;13.40;55.05
52032;BME280;38044;45.148;39.604;2024-03-23T13:24:49;100939.16;;;13.34;55.45
52032;BME280;38044;45.148;39.604;2024-03-23T13:27:16;100929.72;;;13.04;54.37
52032;BME280;38044;45.148;39.604;2024-03-23T13:29:41;100948.72;;;13.13;56.26
52032;BME280;38044;45.148;39.604;2024-03-23T13:32:07;100936.22;;;13.03;55.31
52032;BME280;38044;45.148;39.604;2024-03-23T13:34:34;100931.66;;;12.84;56.45
52032;BME280;38044;45.148;39.604;2024-03-23T13:37:00;100937.41;;;12.64;57.07
52032;BME280;38044;45.148;39.604;2024-03-23T13:39:27;100941.03;;;12.40;57.07
52032;BME280;38044;45.148;39.604;2024-03-23T13:41:53;100929.03;;;12.14;57.67
52032;BME280;38044;45.148;39.604;2024-03-23T13:44:22;100942.97;;;12.02;58.62
52032;BME280;38044;45.148;39.604;2024-03-23T13:46:49;100946.50;;;11.98;59.73